createdAt,value
2018-07-08T00:00:37.990Z,76.50
2018-07-08T00:02:43.196Z,76.90
2018-07-08T00:04:48.529Z,77.10
2018-07-08T00:13:17.879Z,77.40
2018-07-08T00:15:23.249Z,79.10
2018-07-08T00:17:29.107Z,78.80
2018-07-08T00:19:34.395Z,79.70
2018-07-08T00:21:41.745Z,79.40
2018-07-08T00:23:46.533Z,79.50
2018-07-08T00:25:51.836Z,80.10
2018-07-08T00:27:56.817Z,79.50
2018-07-08T00:30:02.602Z,80.20
2018-07-08T00:32:07.623Z,80.30
2018-07-08T00:34:12.478Z,80.80
2018-07-08T00:36:17.445Z,80.70
2018-07-08T00:38:22.393Z,80.60
2018-07-08T00:40:27.435Z,81.10
2018-07-08T00:42:40.916Z,81.00
2018-07-08T00:44:45.792Z,81.20
2018-07-08T00:46:50.718Z,81.60
2018-07-08T00:48:56.176Z,82.20
2018-07-08T00:51:01.862Z,81.60
2018-07-08T00:53:07.966Z,82.00
2018-07-08T00:55:13.152Z,82.60
2018-07-08T00:57:18.479Z,82.00
2018-07-08T00:59:23.654Z,82.10
2018-07-08T01:01:28.583Z,82.20
2018-07-08T01:03:33.725Z,82.40
2018-07-08T01:05:38.724Z,83.00
2018-07-08T01:07:43.918Z,83.00
2018-07-08T01:09:49.296Z,83.10
2018-07-08T01:11:54.325Z,83.80
2018-07-08T01:13:59.433Z,83.80
2018-07-08T01:16:04.825Z,84.20
2018-07-08T01:18:10.031Z,84.50
2018-07-08T01:20:15.092Z,84.50
2018-07-08T01:22:20.796Z,84.20
2018-07-08T01:24:25.858Z,84.70
2018-07-08T01:26:31.418Z,84.80
2018-07-08T01:28:37.010Z,85.10
2018-07-08T01:30:42.427Z,85.20
2018-07-08T01:32:47.665Z,85.70
2018-07-08T01:34:52.720Z,86.00
2018-07-08T01:36:57.909Z,86.40
2018-07-08T01:39:03.367Z,86.80
2018-07-08T01:41:08.599Z,87.00
2018-07-08T01:43:13.491Z,86.90
2018-07-08T01:45:18.585Z,87.60
2018-07-08T01:47:23.638Z,88.10
2018-07-08T01:49:28.617Z,88.50
2018-07-08T01:51:33.581Z,89.10
2018-07-08T01:53:39.128Z,89.70
2018-07-08T01:55:44.155Z,89.60
2018-07-08T01:57:49.529Z,89.80
2018-07-08T01:59:55.098Z,90.10
2018-07-08T02:02:00.084Z,90.60
2018-07-08T02:04:04.942Z,90.70
2018-07-08T02:06:09.858Z,90.90
2018-07-08T02:08:14.756Z,91.00
2018-07-08T02:10:19.646Z,91.20
2018-07-08T02:12:24.647Z,91.30
2018-07-08T02:14:30.094Z,91.60
2018-07-08T02:16:35.010Z,91.90
2018-07-08T02:18:40.425Z,92.20
2018-07-08T02:22:50.287Z,92.50
2018-07-08T02:24:55.373Z,92.80
2018-07-08T02:27:00.494Z,92.90
2018-07-08T02:29:05.419Z,93.10
2018-07-08T02:31:10.338Z,93.10
2018-07-08T02:33:15.257Z,93.20
2018-07-08T02:35:20.105Z,93.30
2018-07-08T02:37:25.865Z,93.50
2018-07-08T02:39:30.946Z,93.90
2018-07-08T02:41:35.861Z,94.30
2018-07-08T02:43:40.982Z,94.30
2018-07-08T02:45:45.997Z,94.60
2018-07-08T02:47:50.881Z,94.60
2018-07-08T02:49:56.116Z,95.60
2018-07-08T02:52:01.147Z,95.30
2018-07-08T02:54:05.992Z,95.50
2018-07-08T02:56:10.879Z,95.70
2018-07-08T02:58:15.636Z,95.60
2018-07-08T03:00:20.447Z,95.90
2018-07-08T03:04:29.725Z,96.60
2018-07-08T03:06:34.609Z,96.80
2018-07-08T03:08:39.511Z,97.00
2018-07-08T03:10:45.100Z,96.90
2018-07-08T03:12:49.854Z,96.90
2018-07-08T03:14:54.746Z,96.70
2018-07-08T03:19:04.084Z,96.80
2018-07-08T03:21:08.906Z,96.90
2018-07-08T03:23:14.189Z,97.60
2018-07-08T03:25:18.979Z,97.80
2018-07-08T03:27:23.732Z,97.40
2018-07-08T03:29:28.688Z,97.60
2018-07-08T03:31:33.419Z,97.90
2018-07-08T03:33:38.154Z,98.20
2018-07-08T03:35:42.924Z,98.20
2018-07-08T03:37:47.617Z,98.10
2018-07-08T03:39:52.411Z,98.80
2018-07-08T03:41:57.143Z,98.90
2018-07-08T03:44:01.957Z,98.90
2018-07-08T03:46:06.852Z,99.10
2018-07-08T03:48:11.553Z,99.90
2018-07-08T03:50:16.473Z,99.70
2018-07-08T03:52:21.450Z,99.50
2018-07-08T03:54:29.134Z,99.70
2018-07-08T03:56:34.110Z,99.90
2018-07-08T03:58:39.077Z,99.60
2018-07-08T04:00:43.967Z,99.50
2018-07-08T04:02:48.705Z,99.70
2018-07-08T04:04:53.461Z,99.70
2018-07-08T04:06:58.245Z,99.70
2018-07-08T04:09:03.193Z,99.90
2018-07-08T04:11:08.897Z,99.80
2018-07-08T04:13:14.160Z,99.60
2018-07-08T04:15:19.826Z,99.60
2018-07-08T04:17:24.870Z,99.60
2018-07-08T04:19:29.791Z,99.90
2018-07-08T04:21:34.880Z,99.90
2018-07-08T04:23:39.967Z,99.90
2018-07-08T04:25:44.993Z,99.90
2018-07-08T04:27:49.951Z,99.90
2018-07-08T04:29:54.756Z,99.90
2018-07-08T04:31:59.494Z,99.90
2018-07-08T04:34:04.455Z,99.90
2018-07-08T04:36:09.354Z,99.90
2018-07-08T04:38:14.267Z,99.90
2018-07-08T04:40:19.239Z,99.90
2018-07-08T04:42:24.073Z,99.90
2018-07-08T04:44:29.467Z,99.90
2018-07-08T04:46:34.246Z,99.90
2018-07-08T04:48:39.217Z,99.90
2018-07-08T04:50:43.954Z,99.90
2018-07-08T04:52:48.857Z,99.90
2018-07-08T04:54:53.705Z,99.90
2018-07-08T04:56:58.611Z,99.90
2018-07-08T04:59:03.361Z,99.90
2018-07-08T05:01:08.255Z,99.90
2018-07-08T05:03:12.988Z,99.90
2018-07-08T05:05:17.838Z,99.90
2018-07-08T05:07:22.721Z,99.90
2018-07-08T05:09:27.601Z,99.90
2018-07-08T05:11:32.479Z,99.90
2018-07-08T05:13:37.551Z,99.90
2018-07-08T05:15:42.356Z,99.90
2018-07-08T05:17:47.249Z,99.90
2018-07-08T05:19:52.923Z,99.90
2018-07-08T05:21:57.785Z,99.90
2018-07-08T05:24:02.662Z,99.90
2018-07-08T05:26:07.551Z,99.90
2018-07-08T05:28:12.361Z,99.90
2018-07-08T05:30:17.146Z,99.90
2018-07-08T05:32:21.989Z,99.90
2018-07-08T05:34:27.277Z,99.90
2018-07-08T05:36:32.169Z,99.90
2018-07-08T05:38:36.910Z,99.90
2018-07-08T05:40:41.776Z,99.60
2018-07-08T05:42:46.768Z,99.50
2018-07-08T05:44:51.800Z,99.70
2018-07-08T05:46:56.751Z,99.80
2018-07-08T05:49:02.174Z,99.60
2018-07-08T05:51:07.216Z,99.00
2018-07-08T05:53:12.148Z,98.90
2018-07-08T05:55:17.048Z,99.10
2018-07-08T05:57:21.892Z,99.40
2018-07-08T05:59:26.825Z,99.20
2018-07-08T06:01:31.662Z,99.50
2018-07-08T06:03:36.561Z,99.50
2018-07-08T06:05:41.384Z,99.50
2018-07-08T06:07:46.320Z,99.50
2018-07-08T06:09:51.271Z,99.60
2018-07-08T06:11:56.296Z,99.50
2018-07-08T06:14:01.498Z,99.50
2018-07-08T06:16:06.559Z,99.40
2018-07-08T06:18:11.528Z,99.30
2018-07-08T06:20:16.468Z,98.90
2018-07-08T06:22:21.457Z,98.80
2018-07-08T06:24:26.494Z,98.90
2018-07-08T06:26:31.537Z,99.10
2018-07-08T06:28:36.554Z,98.70
2018-07-08T06:30:41.614Z,98.00
2018-07-08T06:32:46.612Z,98.00
2018-07-08T06:34:51.698Z,97.70
2018-07-08T06:36:56.724Z,97.50
2018-07-08T06:39:01.699Z,97.00
2018-07-08T06:41:06.878Z,97.10
2018-07-08T06:43:11.832Z,97.20
2018-07-08T06:45:16.645Z,96.80
2018-07-08T06:47:21.676Z,96.70
2018-07-08T06:49:26.560Z,96.50
2018-07-08T06:51:33.406Z,96.60
2018-07-08T06:53:38.482Z,96.80
2018-07-08T06:55:44.681Z,96.40
2018-07-08T06:57:49.781Z,96.10
2018-07-08T06:59:54.843Z,95.60
2018-07-08T07:02:00.008Z,95.40
2018-07-08T07:04:11.410Z,95.50
2018-07-08T07:06:16.475Z,95.20
2018-07-08T07:08:21.736Z,95.00
2018-07-08T07:10:27.241Z,94.20
2018-07-08T07:12:32.578Z,94.00
2018-07-08T07:14:37.409Z,93.40
2018-07-08T07:16:42.198Z,94.00
2018-07-08T07:18:47.142Z,93.50
2018-07-08T07:20:51.998Z,92.30
2018-07-08T07:22:56.941Z,92.60
2018-07-08T07:25:02.421Z,92.10
2018-07-08T07:27:07.598Z,92.60
2018-07-08T07:29:12.512Z,92.40
2018-07-08T07:31:17.549Z,91.90
2018-07-08T07:33:22.527Z,90.60
2018-07-08T07:35:27.797Z,90.70
2018-07-08T07:37:32.809Z,90.70
2018-07-08T07:39:38.280Z,90.40
2018-07-08T07:41:43.641Z,90.70
2018-07-08T07:43:48.604Z,90.30
2018-07-08T07:45:55.300Z,88.90
2018-07-08T07:48:00.197Z,89.80
2018-07-08T07:50:06.512Z,87.30
2018-07-08T07:52:11.457Z,86.50
2018-07-08T07:54:16.622Z,86.50
2018-07-08T07:56:21.740Z,86.80
2018-07-08T07:58:26.766Z,87.30
2018-07-08T08:00:31.819Z,85.40
2018-07-08T08:02:36.894Z,84.70
2018-07-08T08:04:41.783Z,84.30
2018-07-08T08:06:46.759Z,83.40
2018-07-08T08:08:52.491Z,83.70
2018-07-08T08:10:57.536Z,85.30
2018-07-08T08:13:02.332Z,85.70
2018-07-08T08:15:07.858Z,84.50
2018-07-08T08:17:12.752Z,84.60
2018-07-08T08:19:17.728Z,83.00
2018-07-08T08:21:23.903Z,82.50
2018-07-08T08:23:28.887Z,83.50
2018-07-08T08:25:33.771Z,84.20
2018-07-08T08:27:38.608Z,83.10
2018-07-08T08:29:43.812Z,79.70
2018-07-08T08:31:48.596Z,77.50
2018-07-08T08:35:02.238Z,76.60
2018-07-08T08:37:07.702Z,73.60
2018-07-08T08:39:13.161Z,74.00
2018-07-08T08:41:18.361Z,71.90
2018-07-08T08:43:23.419Z,72.90
2018-07-08T08:45:29.832Z,72.80
2018-07-08T08:47:35.530Z,74.00
2018-07-08T08:49:40.518Z,75.60
2018-07-08T08:51:45.508Z,76.20
2018-07-08T08:53:50.481Z,71.30
2018-07-08T08:56:08.763Z,71.40
2018-07-08T08:58:13.737Z,70.10
2018-07-08T09:00:19.645Z,70.20
2018-07-08T09:02:25.062Z,68.50
2018-07-08T09:04:30.180Z,69.00
2018-07-08T09:06:35.334Z,68.90
2018-07-08T09:08:41.357Z,68.40
2018-07-08T09:10:46.786Z,68.20
2018-07-08T09:12:51.910Z,68.40
2018-07-08T09:14:56.754Z,68.00
2018-07-08T09:17:01.691Z,69.20
2018-07-08T09:19:06.661Z,67.70
2018-07-08T09:21:12.467Z,66.70
2018-07-08T09:23:17.417Z,65.70
2018-07-08T09:25:22.438Z,65.50
2018-07-08T09:27:27.444Z,66.80
2018-07-08T09:29:32.582Z,66.80
2018-07-08T09:31:37.879Z,67.50
2018-07-08T09:33:42.851Z,67.80
2018-07-08T09:35:49.088Z,67.10
2018-07-08T09:37:54.116Z,66.90
2018-07-08T09:39:59.015Z,67.60
2018-07-08T09:42:03.843Z,68.00
2018-07-08T09:44:09.350Z,68.50
2018-07-08T09:46:14.431Z,67.90
2018-07-08T09:48:19.859Z,68.20
2018-07-08T09:50:24.812Z,68.50
2018-07-08T09:52:29.834Z,69.70
2018-07-08T09:54:37.114Z,69.60
2018-07-08T09:56:50.398Z,69.60
2018-07-08T09:58:55.529Z,69.70
2018-07-08T10:01:03.066Z,69.30
2018-07-08T10:03:08.198Z,69.40
2018-07-08T10:05:13.159Z,70.30
2018-07-08T10:07:18.074Z,70.20
2018-07-08T10:09:24.079Z,68.90
2018-07-08T10:11:29.110Z,68.80
2018-07-08T10:13:34.262Z,69.40
2018-07-08T10:15:39.085Z,69.30
2018-07-08T10:17:44.113Z,69.00
2018-07-08T10:19:49.092Z,69.20
2018-07-08T10:21:54.955Z,68.90
2018-07-08T10:23:59.938Z,68.90
2018-07-08T10:26:04.880Z,68.90
2018-07-08T10:28:14.148Z,68.10
2018-07-08T10:30:19.097Z,68.10
2018-07-08T10:32:24.031Z,68.20
2018-07-08T10:34:30.814Z,68.10
2018-07-08T10:36:36.197Z,68.00
2018-07-08T10:38:41.044Z,66.90
2018-07-08T10:40:47.031Z,67.80
2018-07-08T10:42:52.579Z,67.40
2018-07-08T10:44:57.798Z,67.90
2018-07-08T10:47:05.013Z,67.70
2018-07-08T10:49:10.420Z,67.50
2018-07-08T10:51:15.385Z,67.10
2018-07-08T10:53:21.288Z,67.70
2018-07-08T10:55:26.646Z,67.60
2018-07-08T10:57:31.664Z,67.40
2018-07-08T10:59:36.980Z,66.70
2018-07-08T11:01:42.216Z,67.00
2018-07-08T11:03:47.540Z,67.10
2018-07-08T11:05:56.283Z,67.30
2018-07-08T11:08:01.383Z,66.20
2018-07-08T11:10:08.327Z,65.70
2018-07-08T11:12:13.325Z,65.50
2018-07-08T11:14:18.502Z,64.80
2018-07-08T11:16:24.515Z,64.50
2018-07-08T11:18:29.813Z,64.50
2018-07-08T11:20:35.376Z,64.70
2018-07-08T11:22:40.672Z,65.50
2018-07-08T11:24:46.110Z,64.50
2018-07-08T11:26:52.471Z,64.50
2018-07-08T11:28:58.340Z,65.10
2018-07-08T11:31:04.109Z,63.20
2018-07-08T11:33:10.267Z,64.00
2018-07-08T11:35:15.752Z,63.80
2018-07-08T11:37:22.109Z,62.80
2018-07-08T11:39:28.018Z,62.80
2018-07-08T11:41:34.291Z,63.50
2018-07-08T11:43:46.037Z,64.10
2018-07-08T11:45:51.021Z,63.40
2018-07-08T11:47:56.275Z,63.00
2018-07-08T11:50:02.035Z,62.60
2018-07-08T11:52:07.079Z,62.20
2018-07-08T11:54:16.709Z,60.60
2018-07-08T11:56:21.877Z,61.50
2018-07-08T11:58:27.254Z,61.70
2018-07-08T12:00:39.492Z,61.10
2018-07-08T12:02:45.048Z,61.90
2018-07-08T12:04:50.377Z,61.20
2018-07-08T12:06:55.761Z,60.10
2018-07-08T12:09:01.178Z,60.60
2018-07-08T12:11:05.933Z,60.90
2018-07-08T12:13:10.823Z,61.20
2018-07-08T12:15:15.851Z,61.10
2018-07-08T12:17:21.346Z,61.30
2018-07-08T12:19:26.468Z,62.00
2018-07-08T12:21:33.199Z,60.20
2018-07-08T12:23:43.571Z,59.00
2018-07-08T12:25:51.317Z,58.90
2018-07-08T12:27:57.025Z,58.30
2018-07-08T12:30:03.121Z,58.30
2018-07-08T12:32:08.082Z,58.70
2018-07-08T12:34:13.143Z,58.70
2018-07-08T12:36:18.890Z,58.30
2018-07-08T12:38:23.772Z,58.50
2018-07-08T12:40:28.531Z,58.00
2018-07-08T12:42:34.767Z,58.00
2018-07-08T12:44:40.346Z,58.10
2018-07-08T12:46:45.680Z,57.60
2018-07-08T12:48:51.440Z,57.50
2018-07-08T12:50:57.053Z,57.20
2018-07-08T12:53:02.300Z,57.30
2018-07-08T12:55:07.528Z,57.00
2018-07-08T12:57:12.788Z,56.70
2018-07-08T12:59:18.163Z,56.40
2018-07-08T13:01:24.746Z,56.70
2018-07-08T13:03:30.075Z,55.70
2018-07-08T13:05:35.022Z,55.90
2018-07-08T13:07:40.304Z,57.00
2018-07-08T13:09:47.094Z,57.10
2018-07-08T13:11:52.082Z,57.90
2018-07-08T13:13:57.321Z,57.00
2018-07-08T13:16:02.531Z,57.80
2018-07-08T13:18:07.555Z,58.10
2018-07-08T13:20:13.001Z,57.30
2018-07-08T13:22:23.127Z,56.70
2018-07-08T13:24:28.962Z,56.20
2018-07-08T13:26:34.918Z,56.40
2018-07-08T13:28:40.036Z,57.40
2018-07-08T13:30:45.809Z,57.20
2018-07-08T13:32:51.332Z,56.70
2018-07-08T13:34:57.913Z,55.90
2018-07-08T13:37:04.000Z,55.60
2018-07-08T13:39:11.795Z,55.30
2018-07-08T13:41:17.936Z,55.60
2018-07-08T13:43:23.002Z,54.80
2018-07-08T13:45:28.056Z,55.20
2018-07-08T13:47:32.995Z,54.70
2018-07-08T13:49:38.235Z,55.10
2018-07-08T13:51:43.493Z,54.50
2018-07-08T13:53:48.625Z,55.00
2018-07-08T13:55:53.682Z,55.30
2018-07-08T13:57:58.773Z,54.80
2018-07-08T14:00:04.524Z,54.40
2018-07-08T14:02:11.027Z,54.80
2018-07-08T14:04:16.455Z,54.30
2018-07-08T14:06:22.710Z,54.00
2018-07-08T14:08:28.252Z,53.40
2018-07-08T14:10:33.767Z,53.70
2018-07-08T14:12:38.715Z,53.60
2018-07-08T14:14:44.253Z,53.90
2018-07-08T14:16:50.005Z,53.20
2018-07-08T14:18:55.123Z,54.00
2018-07-08T14:21:00.621Z,54.10
2018-07-08T14:23:05.563Z,53.90
2018-07-08T14:25:10.881Z,53.80
2018-07-08T14:27:16.613Z,53.30
2018-07-08T14:29:22.001Z,53.70
2018-07-08T14:31:27.117Z,53.20
2018-07-08T14:33:32.329Z,53.30
2018-07-08T14:35:40.163Z,53.00
2018-07-08T14:37:45.388Z,52.60
2018-07-08T14:39:50.830Z,53.00
2018-07-08T14:41:56.633Z,52.80
2018-07-08T14:44:02.138Z,52.40
2018-07-08T14:46:07.536Z,52.80
2018-07-08T14:48:13.149Z,51.90
2018-07-08T14:50:18.340Z,51.90
2018-07-08T14:54:29.108Z,51.80
2018-07-08T14:56:34.802Z,51.70
2018-07-08T14:58:41.019Z,51.10
2018-07-08T15:00:46.699Z,51.50
2018-07-08T15:02:52.679Z,50.70
2018-07-08T15:04:58.258Z,51.10
2018-07-08T15:07:03.374Z,51.70
2018-07-08T15:09:14.173Z,51.50
2018-07-08T15:11:20.269Z,52.20
2018-07-08T15:13:25.779Z,52.50
2018-07-08T15:15:31.103Z,51.30
2018-07-08T15:17:36.762Z,50.80
2018-07-08T15:19:41.799Z,50.50
2018-07-08T15:21:47.007Z,50.40
2018-07-08T15:23:52.245Z,50.50
2018-07-08T15:25:57.368Z,50.60
2018-07-08T15:28:04.672Z,51.00
2018-07-08T15:30:10.077Z,50.70
2018-07-08T15:32:15.694Z,50.60
2018-07-08T15:34:21.272Z,49.50
2018-07-08T15:36:26.451Z,48.50
2018-07-08T15:38:31.368Z,48.40
2018-07-08T15:40:37.116Z,49.20
2018-07-08T15:42:43.355Z,48.90
2018-07-08T15:44:48.516Z,49.40
2018-07-08T15:46:53.713Z,48.90
2018-07-08T15:48:58.770Z,49.20
2018-07-08T15:51:03.800Z,48.60
2018-07-08T15:53:09.028Z,48.40
2018-07-08T15:55:14.921Z,48.40
2018-07-08T15:57:19.946Z,48.10
2018-07-08T15:59:24.997Z,48.30
2018-07-08T16:01:30.069Z,48.80
2018-07-08T16:03:35.077Z,48.10
2018-07-08T16:05:40.121Z,48.40
2018-07-08T16:07:45.202Z,47.90
2018-07-08T16:09:50.213Z,47.80
2018-07-08T16:11:55.283Z,47.00
2018-07-08T16:14:01.419Z,47.10
2018-07-08T16:16:06.588Z,47.20
2018-07-08T16:20:08.253Z,47.40
2018-07-08T16:22:14.650Z,46.90
2018-07-08T16:24:20.120Z,45.90
2018-07-08T16:26:25.446Z,46.10
2018-07-08T16:28:30.647Z,46.40
2018-07-08T16:30:36.062Z,46.70
2018-07-08T16:32:41.196Z,46.10
2018-07-08T16:34:46.802Z,45.90
2018-07-08T16:36:52.742Z,45.90
2018-07-08T16:38:58.122Z,45.40
2018-07-08T16:41:03.123Z,45.60
2018-07-08T16:43:12.722Z,45.00
2018-07-08T16:45:19.373Z,44.50
2018-07-08T16:47:24.964Z,44.30
2018-07-08T16:49:30.643Z,45.00
2018-07-08T16:51:36.483Z,43.90
2018-07-08T16:53:41.886Z,44.20
2018-07-08T16:55:49.136Z,42.80
2018-07-08T16:57:55.279Z,42.50
2018-07-08T17:00:01.804Z,42.10
2018-07-08T17:02:08.725Z,41.50
2018-07-08T17:04:14.526Z,40.70
2018-07-08T17:06:20.345Z,40.00
2018-07-08T17:08:25.923Z,40.50
2018-07-08T17:10:33.713Z,41.10
2018-07-08T17:12:38.916Z,41.70
2018-07-08T17:14:45.691Z,41.50
2018-07-08T17:16:52.840Z,39.70
2018-07-08T17:18:58.156Z,40.10
2018-07-08T17:23:09.315Z,39.60
2018-07-08T17:25:14.449Z,40.20
2018-07-08T17:27:19.578Z,40.50
2018-07-08T17:29:25.130Z,40.50
2018-07-08T17:31:30.933Z,41.40
2018-07-08T17:33:38.299Z,42.80
2018-07-08T17:35:44.479Z,42.40
2018-07-08T17:37:51.263Z,42.10
2018-07-08T17:39:56.438Z,42.60
2018-07-08T17:42:01.340Z,42.20
2018-07-08T17:44:07.163Z,42.20
2018-07-08T17:46:12.451Z,41.60
2018-07-08T17:48:18.167Z,41.40
2018-07-08T17:50:23.380Z,42.00
2018-07-08T17:52:28.535Z,41.90
2018-07-08T17:54:33.515Z,41.90
2018-07-08T17:56:40.487Z,42.50
2018-07-08T17:58:53.275Z,42.80
2018-07-08T18:00:58.582Z,42.90
2018-07-08T18:03:04.596Z,42.70
2018-07-08T18:05:09.665Z,42.80
2018-07-08T18:07:15.048Z,43.50
2018-07-08T18:09:20.452Z,44.10
2018-07-08T18:11:26.364Z,43.90
2018-07-08T18:13:31.380Z,44.10
2018-07-08T18:15:37.830Z,44.10
2018-07-08T18:17:43.846Z,44.20
2018-07-08T18:19:50.411Z,43.70
2018-07-08T18:21:55.504Z,43.20
2018-07-08T18:26:05.805Z,43.50
2018-07-08T18:28:11.376Z,43.70
2018-07-08T18:30:20.274Z,43.50
2018-07-08T18:32:27.104Z,44.10
2018-07-08T18:34:34.290Z,44.70
2018-07-08T18:36:42.574Z,44.60
2018-07-08T18:38:47.712Z,45.10
2018-07-08T18:40:53.311Z,46.40
2018-07-08T18:42:58.896Z,46.70
2018-07-08T18:45:04.306Z,47.60
2018-07-08T18:47:09.523Z,47.50
2018-07-08T18:49:14.661Z,47.10
2018-07-08T18:51:20.712Z,47.70
2018-07-08T18:53:25.976Z,47.70
2018-07-08T18:55:31.486Z,48.10
2018-07-08T18:57:38.603Z,48.90
2018-07-08T18:59:44.472Z,49.40
2018-07-08T19:01:50.828Z,49.50
2018-07-08T19:03:56.324Z,49.80
2018-07-08T19:06:03.638Z,50.00
2018-07-08T19:08:08.849Z,50.00
2018-07-08T19:10:13.879Z,49.90
2018-07-08T19:12:18.937Z,50.10
2018-07-08T19:14:24.387Z,50.30
2018-07-08T19:16:30.053Z,50.20
2018-07-08T19:18:44.892Z,50.60
2018-07-08T19:20:50.691Z,50.20
2018-07-08T19:22:56.912Z,50.60
2018-07-08T19:25:02.927Z,51.20
2018-07-08T19:27:08.575Z,51.30
2018-07-08T19:29:15.046Z,51.60
2018-07-08T19:31:23.821Z,52.30
2018-07-08T19:33:30.179Z,52.30
2018-07-08T19:35:49.611Z,52.50
2018-07-08T19:37:55.656Z,52.30
2018-07-08T19:40:02.849Z,52.50
2018-07-08T19:42:08.542Z,52.90
2018-07-08T19:44:13.736Z,53.30
2018-07-08T19:46:19.537Z,52.70
2018-07-08T19:48:24.658Z,53.20
2018-07-08T19:50:29.881Z,53.60
2018-07-08T19:52:35.118Z,54.00
2018-07-08T19:54:40.625Z,54.40
2018-07-08T19:56:45.770Z,54.90
2018-07-08T19:58:50.958Z,54.50
2018-07-08T20:00:56.808Z,54.60
2018-07-08T20:03:03.665Z,54.80
2018-07-08T20:05:09.537Z,55.00
2018-07-08T20:07:16.101Z,55.00
2018-07-08T20:09:24.188Z,54.80
2018-07-08T20:11:29.999Z,55.10
2018-07-08T20:13:36.069Z,55.30
2018-07-08T20:15:42.232Z,55.40
2018-07-08T20:17:49.554Z,55.90
2018-07-08T20:19:55.742Z,56.00
2018-07-08T20:22:01.458Z,56.20
2018-07-08T20:24:06.916Z,56.80
2018-07-08T20:26:11.979Z,57.00
2018-07-08T20:28:17.045Z,57.00
2018-07-08T20:30:26.003Z,57.20
2018-07-08T20:32:31.306Z,57.30
2018-07-08T20:34:36.604Z,57.60
2018-07-08T20:36:41.731Z,58.00
2018-07-08T20:38:46.934Z,58.30
2018-07-08T20:40:51.866Z,58.60
2018-07-08T20:42:57.792Z,58.60
2018-07-08T20:45:02.896Z,59.00
2018-07-08T20:47:07.977Z,59.10
2018-07-08T20:49:13.358Z,59.40
2018-07-08T20:51:18.349Z,59.70
2018-07-08T20:53:24.241Z,60.10
2018-07-08T20:55:29.709Z,60.70
2018-07-08T20:57:35.304Z,60.80
2018-07-08T20:59:40.674Z,60.80
2018-07-08T21:01:46.549Z,61.20
2018-07-08T21:03:54.838Z,61.70
2018-07-08T21:06:00.904Z,62.00
2018-07-08T21:08:05.989Z,62.20
2018-07-08T21:10:11.791Z,62.30
2018-07-08T21:12:17.115Z,62.70
2018-07-08T21:14:27.462Z,63.10
2018-07-08T21:16:33.612Z,63.40
2018-07-08T21:18:39.898Z,64.00
2018-07-08T21:20:46.295Z,64.20
2018-07-08T21:22:51.494Z,64.50
2018-07-08T21:24:57.173Z,64.70
2018-07-08T21:27:02.603Z,65.30
2018-07-08T21:29:08.301Z,65.50
2018-07-08T21:31:13.803Z,65.80
2018-07-08T21:33:18.984Z,66.00
2018-07-08T21:35:24.129Z,65.90
2018-07-08T21:37:29.680Z,66.20
2018-07-08T21:39:34.780Z,65.90
2018-07-08T21:41:40.441Z,66.30
2018-07-08T21:43:45.521Z,67.00
2018-07-08T21:45:51.136Z,67.20
2018-07-08T21:47:56.780Z,66.90
2018-07-08T21:50:01.896Z,67.10
2018-07-08T21:52:07.470Z,67.70
2018-07-08T21:54:12.855Z,68.20
2018-07-08T21:56:18.413Z,67.90
2018-07-08T21:58:23.572Z,68.10
2018-07-08T22:00:32.786Z,68.30
2018-07-08T22:02:37.885Z,69.50
2018-07-08T22:04:43.025Z,69.60
2018-07-08T22:06:48.266Z,70.10
2018-07-08T22:08:53.965Z,70.10
2018-07-08T22:10:59.445Z,70.30
2018-07-08T22:13:04.608Z,70.60
2018-07-08T22:15:09.740Z,71.10
2018-07-08T22:17:14.727Z,71.30
2018-07-08T22:19:19.736Z,71.80
2018-07-08T22:21:24.657Z,72.30
2018-07-08T22:23:29.874Z,73.10
2018-07-08T22:25:35.192Z,73.50
2018-07-08T22:27:40.469Z,73.60
2018-07-08T22:29:45.315Z,74.00
2018-07-08T22:31:50.287Z,74.50
2018-07-08T22:33:55.267Z,74.70
2018-07-08T22:36:00.384Z,74.90
2018-07-08T22:38:05.865Z,74.90
2018-07-08T22:40:11.333Z,75.30
2018-07-08T22:42:16.482Z,75.20
2018-07-08T22:44:21.745Z,75.50
2018-07-08T22:46:26.935Z,75.80
2018-07-08T22:48:31.932Z,76.30
2018-07-08T22:50:37.084Z,76.40
2018-07-08T22:52:42.412Z,76.20
2018-07-08T22:54:47.634Z,76.80
2018-07-08T22:56:53.218Z,77.40
2018-07-08T23:01:19.429Z,78.30
2018-07-08T23:03:57.534Z,78.40
2018-07-08T23:06:02.339Z,78.50
2018-07-08T23:08:07.311Z,78.70
2018-07-08T23:10:12.807Z,78.50
2018-07-08T23:12:18.055Z,79.00
2018-07-08T23:14:23.234Z,79.00
2018-07-08T23:16:29.044Z,79.60
2018-07-08T23:18:33.832Z,79.70
2018-07-08T23:20:39.026Z,79.90
2018-07-08T23:22:55.497Z,79.90
2018-07-08T23:25:00.531Z,80.30
2018-07-08T23:27:06.013Z,80.60
2018-07-08T23:29:10.990Z,81.90
2018-07-08T23:31:16.306Z,81.10
2018-07-08T23:33:21.186Z,81.40
2018-07-08T23:35:26.056Z,82.20
2018-07-08T23:37:31.369Z,82.40
2018-07-08T23:39:36.764Z,82.30
2018-07-08T23:41:42.118Z,82.50
2018-07-08T23:43:47.050Z,83.00
2018-07-08T23:45:51.979Z,84.10
2018-07-08T23:47:56.853Z,83.00
2018-07-08T23:50:01.838Z,83.20
2018-07-08T23:52:06.846Z,83.40
2018-07-08T23:54:11.765Z,83.70
2018-07-08T23:56:16.757Z,84.40
2018-07-08T23:58:21.627Z,84.60
